sensor_id;sensor_type;location;lat;lon;timestamp;P1;durP1;ratioP1;P2;durP2;ratioP2
51616;SDS011;37697;52.588;13.394;2023-04-03T00:00:17;4.10;;;1.30;;
51616;SDS011;37697;52.588;13.394;2023-04-03T00:05:53;5.20;;;1.70;;
51616;SDS011;37697;52.588;13.394;2023-04-03T00:11:19;4.30;;;1.10;;
51616;SDS011;37697;52.588;13.394;2023-04-03T00:16:45;8.40;;;1.30;;
51616;SDS011;37697;52.588;13.394;2023-04-03T00:22:11;6.70;;;1.50;;
51616;SDS011;37697;52.588;13.394;2023-04-03T00:27:37;7.70;;;1.40;;
51616;SDS011;37697;52.588;13.394;2023-04-03T00:33:04;3.10;;;1.00;;
51616;SDS011;37697;52.588;13.394;2023-04-03T00:38:30;4.90;;;1.20;;
51616;SDS011;37697;52.588;13.394;2023-04-03T00:43:56;5.60;;;1.30;;
51616;SDS011;37697;52.588;13.394;2023-04-03T00:49:22;6.10;;;1.30;;
51616;SDS011;37697;52.588;13.394;2023-04-03T00:54:48;4.40;;;1.40;;
51616;SDS011;37697;52.588;13.394;2023-04-03T01:00:19;4.50;;;1.20;;
51616;SDS011;37697;52.588;13.394;2023-04-03T01:05:46;6.80;;;1.40;;
51616;SDS011;37697;52.588;13.394;2023-04-03T01:11:13;7.10;;;1.80;;
51616;SDS011;37697;52.588;13.394;2023-04-03T01:16:38;4.10;;;1.10;;
51616;SDS011;37697;52.588;13.394;2023-04-03T01:22:06;3.60;;;1.00;;
51616;SDS011;37697;52.588;13.394;2023-04-03T01:27:42;8.30;;;1.40;;
51616;SDS011;37697;52.588;13.394;2023-04-03T01:33:08;3.80;;;1.50;;
51616;SDS011;37697;52.588;13.394;2023-04-03T01:38:33;4.80;;;1.20;;
51616;SDS011;37697;52.588;13.394;2023-04-03T01:43:59;3.50;;;0.90;;
51616;SDS011;37697;52.588;13.394;2023-04-03T01:49:25;5.60;;;1.40;;
51616;SDS011;37697;52.588;13.394;2023-04-03T01:54:51;4.20;;;0.80;;
51616;SDS011;37697;52.588;13.394;2023-04-03T02:00:17;2.80;;;1.00;;
51616;SDS011;37697;52.588;13.394;2023-04-03T02:05:43;2.40;;;0.90;;
51616;SDS011;37697;52.588;13.394;2023-04-03T02:11:09;2.90;;;0.80;;
51616;SDS011;37697;52.588;13.394;2023-04-03T02:16:35;3.90;;;1.20;;
51616;SDS011;37697;52.588;13.394;2023-04-03T02:22:00;3.80;;;1.10;;
51616;SDS011;37697;52.588;13.394;2023-04-03T02:27:26;3.20;;;1.10;;
51616;SDS011;37697;52.588;13.394;2023-04-03T02:32:52;5.60;;;1.80;;
51616;SDS011;37697;52.588;13.394;2023-04-03T02:38:18;4.40;;;1.30;;
51616;SDS011;37697;52.588;13.394;2023-04-03T02:43:43;6.70;;;1.60;;
51616;SDS011;37697;52.588;13.394;2023-04-03T02:49:09;4.10;;;1.60;;
51616;SDS011;37697;52.588;13.394;2023-04-03T02:54:35;5.60;;;1.50;;
51616;SDS011;37697;52.588;13.394;2023-04-03T03:00:01;4.90;;;1.50;;
51616;SDS011;37697;52.588;13.394;2023-04-03T03:05:27;5.10;;;1.50;;
51616;SDS011;37697;52.588;13.394;2023-04-03T03:10:53;4.70;;;1.80;;
51616;SDS011;37697;52.588;13.394;2023-04-03T03:16:19;4.30;;;1.20;;
51616;SDS011;37697;52.588;13.394;2023-04-03T03:21:44;6.80;;;1.40;;
51616;SDS011;37697;52.588;13.394;2023-04-03T03:27:10;4.70;;;1.40;;
51616;SDS011;37697;52.588;13.394;2023-04-03T03:32:36;8.00;;;2.20;;
51616;SDS011;37697;52.588;13.394;2023-04-03T03:38:01;3.20;;;1.20;;
51616;SDS011;37697;52.588;13.394;2023-04-03T03:43:27;5.30;;;1.20;;
51616;SDS011;37697;52.588;13.394;2023-04-03T03:48:53;3.80;;;1.20;;
51616;SDS011;37697;52.588;13.394;2023-04-03T03:54:19;3.40;;;1.00;;
51616;SDS011;37697;52.588;13.394;2023-04-03T03:59:44;4.80;;;1.80;;
51616;SDS011;37697;52.588;13.394;2023-04-03T04:05:10;3.30;;;1.00;;
51616;SDS011;37697;52.588;13.394;2023-04-03T04:10:36;4.30;;;1.20;;
51616;SDS011;37697;52.588;13.394;2023-04-03T04:16:03;4.40;;;1.30;;
51616;SDS011;37697;52.588;13.394;2023-04-03T04:21:29;5.30;;;1.40;;
51616;SDS011;37697;52.588;13.394;2023-04-03T04:26:55;4.60;;;1.20;;
51616;SDS011;37697;52.588;13.394;2023-04-03T04:32:21;4.90;;;1.20;;
51616;SDS011;37697;52.588;13.394;2023-04-03T04:37:47;6.30;;;1.30;;
51616;SDS011;37697;52.588;13.394;2023-04-03T04:43:12;6.50;;;1.30;;
51616;SDS011;37697;52.588;13.394;2023-04-03T04:48:38;3.80;;;1.30;;
51616;SDS011;37697;52.588;13.394;2023-04-03T04:53:56;4.40;;;1.40;;
51616;SDS011;37697;52.588;13.394;2023-04-03T04:59:22;5.20;;;1.40;;
51616;SDS011;37697;52.588;13.394;2023-04-03T05:04:38;6.70;;;1.60;;
51616;SDS011;37697;52.588;13.394;2023-04-03T05:10:09;3.40;;;1.40;;
51616;SDS011;37697;52.588;13.394;2023-04-03T05:15:25;6.60;;;1.50;;
51616;SDS011;37697;52.588;13.394;2023-04-03T05:20:50;3.90;;;1.60;;
51616;SDS011;37697;52.588;13.394;2023-04-03T05:26:17;5.70;;;1.50;;
51616;SDS011;37697;52.588;13.394;2023-04-03T05:31:42;4.70;;;2.10;;
51616;SDS011;37697;52.588;13.394;2023-04-03T05:37:08;4.90;;;1.60;;
51616;SDS011;37697;52.588;13.394;2023-04-03T05:42:34;5.50;;;1.50;;
51616;SDS011;37697;52.588;13.394;2023-04-03T05:47:59;5.90;;;1.60;;
51616;SDS011;37697;52.588;13.394;2023-04-03T05:53:26;4.20;;;1.20;;
51616;SDS011;37697;52.588;13.394;2023-04-03T05:58:55;7.70;;;1.30;;
51616;SDS011;37697;52.588;13.394;2023-04-03T06:04:21;4.80;;;1.40;;
51616;SDS011;37697;52.588;13.394;2023-04-03T06:09:47;6.90;;;1.40;;
51616;SDS011;37697;52.588;13.394;2023-04-03T06:15:14;5.60;;;1.30;;
51616;SDS011;37697;52.588;13.394;2023-04-03T06:20:39;3.70;;;1.30;;
51616;SDS011;37697;52.588;13.394;2023-04-03T06:26:05;3.30;;;1.00;;
51616;SDS011;37697;52.588;13.394;2023-04-03T06:31:31;4.90;;;1.20;;
51616;SDS011;37697;52.588;13.394;2023-04-03T06:36:57;4.90;;;1.60;;
51616;SDS011;37697;52.588;13.394;2023-04-03T06:42:22;6.10;;;1.60;;
51616;SDS011;37697;52.588;13.394;2023-04-03T06:47:50;4.00;;;1.10;;
51616;SDS011;37697;52.588;13.394;2023-04-03T06:53:15;3.80;;;1.10;;
51616;SDS011;37697;52.588;13.394;2023-04-03T06:58:41;6.10;;;1.60;;
51616;SDS011;37697;52.588;13.394;2023-04-03T07:04:08;7.40;;;1.30;;
51616;SDS011;37697;52.588;13.394;2023-04-03T07:09:34;4.40;;;1.00;;
51616;SDS011;37697;52.588;13.394;2023-04-03T07:14:53;4.00;;;1.10;;
51616;SDS011;37697;52.588;13.394;2023-04-03T07:20:18;3.20;;;0.90;;
51616;SDS011;37697;52.588;13.394;2023-04-03T07:25:44;5.10;;;1.10;;
51616;SDS011;37697;52.588;13.394;2023-04-03T07:31:11;6.20;;;1.20;;
51616;SDS011;37697;52.588;13.394;2023-04-03T07:36:37;3.10;;;0.90;;
51616;SDS011;37697;52.588;13.394;2023-04-03T07:42:03;3.80;;;0.80;;
51616;SDS011;37697;52.588;13.394;2023-04-03T07:47:29;3.50;;;1.00;;
51616;SDS011;37697;52.588;13.394;2023-04-03T07:52:55;3.40;;;0.90;;
51616;SDS011;37697;52.588;13.394;2023-04-03T07:58:20;3.00;;;1.10;;
51616;SDS011;37697;52.588;13.394;2023-04-03T08:03:46;3.70;;;0.70;;
51616;SDS011;37697;52.588;13.394;2023-04-03T08:09:12;2.30;;;0.80;;
51616;SDS011;37697;52.588;13.394;2023-04-03T08:14:39;6.30;;;1.00;;
51616;SDS011;37697;52.588;13.394;2023-04-03T08:20:06;3.90;;;1.00;;
51616;SDS011;37697;52.588;13.394;2023-04-03T08:25:26;2.50;;;0.80;;
51616;SDS011;37697;52.588;13.394;2023-04-03T08:30:52;3.40;;;0.90;;
51616;SDS011;37697;52.588;13.394;2023-04-03T08:36:18;3.50;;;1.20;;
51616;SDS011;37697;52.588;13.394;2023-04-03T08:41:47;4.40;;;1.00;;
51616;SDS011;37697;52.588;13.394;2023-04-03T08:47:15;2.20;;;0.90;;
51616;SDS011;37697;52.588;13.394;2023-04-03T08:52:40;5.10;;;1.00;;
51616;SDS011;37697;52.588;13.394;2023-04-03T08:58:11;2.60;;;0.90;;
51616;SDS011;37697;52.588;13.394;2023-04-03T09:03:39;3.00;;;1.00;;
51616;SDS011;37697;52.588;13.394;2023-04-03T09:09:10;5.00;;;1.40;;
51616;SDS011;37697;52.588;13.394;2023-04-03T09:14:39;2.20;;;0.90;;
51616;SDS011;37697;52.588;13.394;2023-04-03T09:20:17;3.20;;;0.80;;
51616;SDS011;37697;52.588;13.394;2023-04-03T09:25:47;4.00;;;1.10;;
51616;SDS011;37697;52.588;13.394;2023-04-03T09:31:21;3.70;;;1.00;;
51616;SDS011;37697;52.588;13.394;2023-04-03T09:36:50;3.90;;;1.30;;
51616;SDS011;37697;52.588;13.394;2023-04-03T09:42:20;2.90;;;1.00;;
51616;SDS011;37697;52.588;13.394;2023-04-03T09:48:09;3.20;;;1.00;;
51616;SDS011;37697;52.588;13.394;2023-04-03T09:53:40;1.70;;;0.70;;
51616;SDS011;37697;52.588;13.394;2023-04-03T09:59:12;2.00;;;0.70;;
51616;SDS011;37697;52.588;13.394;2023-04-03T10:04:40;2.70;;;0.70;;
51616;SDS011;37697;52.588;13.394;2023-04-03T10:10:17;3.90;;;1.30;;
51616;SDS011;37697;52.588;13.394;2023-04-03T10:15:46;2.80;;;0.80;;
51616;SDS011;37697;52.588;13.394;2023-04-03T10:21:15;4.30;;;0.90;;
51616;SDS011;37697;52.588;13.394;2023-04-03T10:26:54;3.10;;;0.80;;
51616;SDS011;37697;52.588;13.394;2023-04-03T10:32:29;2.80;;;0.80;;
51616;SDS011;37697;52.588;13.394;2023-04-03T10:38:15;3.00;;;0.60;;
51616;SDS011;37697;52.588;13.394;2023-04-03T10:43:46;5.00;;;1.00;;
51616;SDS011;37697;52.588;13.394;2023-04-03T10:49:25;3.10;;;1.00;;
51616;SDS011;37697;52.588;13.394;2023-04-03T10:55:08;8.90;;;1.70;;
51616;SDS011;37697;52.588;13.394;2023-04-03T11:00:48;3.40;;;0.70;;
51616;SDS011;37697;52.588;13.394;2023-04-03T11:06:24;2.80;;;0.70;;
51616;SDS011;37697;52.588;13.394;2023-04-03T11:11:58;2.40;;;0.80;;
51616;SDS011;37697;52.588;13.394;2023-04-03T11:17:30;3.60;;;0.90;;
51616;SDS011;37697;52.588;13.394;2023-04-03T11:23:00;4.80;;;1.00;;
51616;SDS011;37697;52.588;13.394;2023-04-03T11:28:29;3.60;;;1.00;;
51616;SDS011;37697;52.588;13.394;2023-04-03T11:33:58;2.70;;;0.70;;
51616;SDS011;37697;52.588;13.394;2023-04-03T11:39:32;5.50;;;1.00;;
51616;SDS011;37697;52.588;13.394;2023-04-03T11:45:17;2.30;;;0.80;;
51616;SDS011;37697;52.588;13.394;2023-04-03T11:50:52;2.80;;;0.80;;
51616;SDS011;37697;52.588;13.394;2023-04-03T11:56:33;5.30;;;1.00;;
51616;SDS011;37697;52.588;13.394;2023-04-03T12:01:59;2.50;;;0.90;;
51616;SDS011;37697;52.588;13.394;2023-04-03T12:07:24;1.70;;;0.80;;
51616;SDS011;37697;52.588;13.394;2023-04-03T12:12:56;1.90;;;1.00;;
51616;SDS011;37697;52.588;13.394;2023-04-03T12:24:29;1.70;;;0.70;;
51616;SDS011;37697;52.588;13.394;2023-04-03T12:29:50;2.00;;;0.70;;
51616;SDS011;37697;52.588;13.394;2023-04-03T12:35:21;2.20;;;0.60;;
51616;SDS011;37697;52.588;13.394;2023-04-03T12:40:52;3.90;;;1.20;;
51616;SDS011;37697;52.588;13.394;2023-04-03T12:46:32;3.90;;;1.00;;
51616;SDS011;37697;52.588;13.394;2023-04-03T12:52:03;3.70;;;1.20;;
51616;SDS011;37697;52.588;13.394;2023-04-03T12:57:40;3.40;;;1.00;;
51616;SDS011;37697;52.588;13.394;2023-04-03T13:03:17;2.60;;;0.90;;
51616;SDS011;37697;52.588;13.394;2023-04-03T13:08:50;3.60;;;1.20;;
51616;SDS011;37697;52.588;13.394;2023-04-03T13:14:19;2.20;;;0.80;;
51616;SDS011;37697;52.588;13.394;2023-04-03T13:19:45;3.30;;;1.00;;
51616;SDS011;37697;52.588;13.394;2023-04-03T13:25:13;3.00;;;1.00;;
51616;SDS011;37697;52.588;13.394;2023-04-03T13:30:41;2.60;;;0.90;;
51616;SDS011;37697;52.588;13.394;2023-04-03T13:36:33;1.90;;;0.70;;
51616;SDS011;37697;52.588;13.394;2023-04-03T13:42:14;2.20;;;0.80;;
51616;SDS011;37697;52.588;13.394;2023-04-03T13:47:47;2.00;;;0.80;;
51616;SDS011;37697;52.588;13.394;2023-04-03T13:53:26;3.20;;;0.70;;
51616;SDS011;37697;52.588;13.394;2023-04-03T13:58:55;2.30;;;0.80;;
51616;SDS011;37697;52.588;13.394;2023-04-03T14:04:47;2.20;;;0.80;;
51616;SDS011;37697;52.588;13.394;2023-04-03T14:10:09;2.30;;;1.00;;
51616;SDS011;37697;52.588;13.394;2023-04-03T14:15:35;4.80;;;1.00;;
51616;SDS011;37697;52.588;13.394;2023-04-03T14:21:16;2.70;;;0.80;;
51616;SDS011;37697;52.588;13.394;2023-04-03T14:26:44;5.40;;;1.20;;
51616;SDS011;37697;52.588;13.394;2023-04-03T14:32:11;2.20;;;0.90;;
51616;SDS011;37697;52.588;13.394;2023-04-03T14:37:38;2.70;;;1.20;;
51616;SDS011;37697;52.588;13.394;2023-04-03T14:43:05;1.80;;;0.80;;
51616;SDS011;37697;52.588;13.394;2023-04-03T14:48:33;4.50;;;1.20;;
51616;SDS011;37697;52.588;13.394;2023-04-03T14:53:59;1.80;;;0.70;;
51616;SDS011;37697;52.588;13.394;2023-04-03T14:59:25;3.90;;;1.70;;
51616;SDS011;37697;52.588;13.394;2023-04-03T15:04:53;6.20;;;1.60;;
51616;SDS011;37697;52.588;13.394;2023-04-03T15:10:17;3.90;;;1.10;;
51616;SDS011;37697;52.588;13.394;2023-04-03T15:15:46;2.70;;;1.10;;
51616;SDS011;37697;52.588;13.394;2023-04-03T15:21:14;2.90;;;1.30;;
51616;SDS011;37697;52.588;13.394;2023-04-03T15:26:39;3.40;;;0.90;;
51616;SDS011;37697;52.588;13.394;2023-04-03T15:32:05;3.20;;;1.20;;
51616;SDS011;37697;52.588;13.394;2023-04-03T15:37:35;5.70;;;1.20;;
51616;SDS011;37697;52.588;13.394;2023-04-03T15:43:01;6.00;;;1.60;;
51616;SDS011;37697;52.588;13.394;2023-04-03T15:48:26;6.50;;;1.60;;
51616;SDS011;37697;52.588;13.394;2023-04-03T15:53:53;2.80;;;1.10;;
51616;SDS011;37697;52.588;13.394;2023-04-03T15:59:19;4.60;;;1.40;;
51616;SDS011;37697;52.588;13.394;2023-04-03T16:04:44;2.20;;;0.90;;
51616;SDS011;37697;52.588;13.394;2023-04-03T16:10:11;4.40;;;1.20;;
51616;SDS011;37697;52.588;13.394;2023-04-03T16:15:40;3.00;;;1.00;;
51616;SDS011;37697;52.588;13.394;2023-04-03T16:21:06;5.50;;;1.30;;
51616;SDS011;37697;52.588;13.394;2023-04-03T16:26:33;3.40;;;1.30;;
51616;SDS011;37697;52.588;13.394;2023-04-03T16:31:59;2.80;;;1.00;;
51616;SDS011;37697;52.588;13.394;2023-04-03T16:37:26;4.00;;;0.90;;
51616;SDS011;37697;52.588;13.394;2023-04-03T16:42:52;4.60;;;1.10;;
51616;SDS011;37697;52.588;13.394;2023-04-03T16:48:18;3.40;;;0.90;;
51616;SDS011;37697;52.588;13.394;2023-04-03T16:53:43;4.50;;;1.30;;
51616;SDS011;37697;52.588;13.394;2023-04-03T16:59:09;3.90;;;1.00;;
51616;SDS011;37697;52.588;13.394;2023-04-03T17:04:35;4.30;;;1.30;;
51616;SDS011;37697;52.588;13.394;2023-04-03T17:10:01;3.20;;;1.20;;
51616;SDS011;37697;52.588;13.394;2023-04-03T17:15:27;2.60;;;1.00;;
51616;SDS011;37697;52.588;13.394;2023-04-03T17:20:52;3.70;;;1.20;;
51616;SDS011;37697;52.588;13.394;2023-04-03T17:26:19;4.60;;;1.00;;
51616;SDS011;37697;52.588;13.394;2023-04-03T17:31:44;5.90;;;1.30;;
51616;SDS011;37697;52.588;13.394;2023-04-03T17:37:10;5.00;;;1.10;;
51616;SDS011;37697;52.588;13.394;2023-04-03T17:42:36;4.10;;;1.20;;
51616;SDS011;37697;52.588;13.394;2023-04-03T17:48:02;2.90;;;1.00;;
51616;SDS011;37697;52.588;13.394;2023-04-03T17:53:28;5.10;;;1.60;;
51616;SDS011;37697;52.588;13.394;2023-04-03T17:58:54;4.60;;;1.30;;
51616;SDS011;37697;52.588;13.394;2023-04-03T18:04:20;4.30;;;1.60;;
51616;SDS011;37697;52.588;13.394;2023-04-03T18:09:46;4.40;;;1.40;;
51616;SDS011;37697;52.588;13.394;2023-04-03T18:15:14;4.20;;;1.20;;
51616;SDS011;37697;52.588;13.394;2023-04-03T18:20:40;4.20;;;1.50;;
51616;SDS011;37697;52.588;13.394;2023-04-03T18:26:06;2.70;;;1.00;;
51616;SDS011;37697;52.588;13.394;2023-04-03T18:31:35;2.70;;;1.20;;
51616;SDS011;37697;52.588;13.394;2023-04-03T18:37:04;4.60;;;1.20;;
51616;SDS011;37697;52.588;13.394;2023-04-03T18:42:30;3.10;;;1.20;;
51616;SDS011;37697;52.588;13.394;2023-04-03T18:47:56;3.60;;;1.10;;
51616;SDS011;37697;52.588;13.394;2023-04-03T18:53:22;3.30;;;1.20;;
51616;SDS011;37697;52.588;13.394;2023-04-03T18:58:47;4.40;;;1.40;;
51616;SDS011;37697;52.588;13.394;2023-04-03T19:04:13;2.20;;;1.30;;
51616;SDS011;37697;52.588;13.394;2023-04-03T19:09:40;4.30;;;1.60;;
51616;SDS011;37697;52.588;13.394;2023-04-03T19:15:07;4.60;;;1.30;;
51616;SDS011;37697;52.588;13.394;2023-04-03T19:20:33;3.60;;;1.30;;
51616;SDS011;37697;52.588;13.394;2023-04-03T19:25:59;4.30;;;1.80;;
51616;SDS011;37697;52.588;13.394;2023-04-03T19:31:27;6.70;;;3.00;;
51616;SDS011;37697;52.588;13.394;2023-04-03T19:36:53;5.20;;;2.50;;
51616;SDS011;37697;52.588;13.394;2023-04-03T19:42:19;5.20;;;1.70;;
51616;SDS011;37697;52.588;13.394;2023-04-03T19:47:45;4.90;;;1.60;;
51616;SDS011;37697;52.588;13.394;2023-04-03T19:53:11;3.30;;;1.40;;
51616;SDS011;37697;52.588;13.394;2023-04-03T19:58:32;5.80;;;1.60;;
51616;SDS011;37697;52.588;13.394;2023-04-03T20:03:58;8.50;;;1.80;;
51616;SDS011;37697;52.588;13.394;2023-04-03T20:09:24;5.30;;;2.00;;
51616;SDS011;37697;52.588;13.394;2023-04-03T20:14:49;5.10;;;2.00;;
51616;SDS011;37697;52.588;13.394;2023-04-03T20:20:15;9.50;;;2.60;;
51616;SDS011;37697;52.588;13.394;2023-04-03T20:25:42;5.90;;;2.10;;
51616;SDS011;37697;52.588;13.394;2023-04-03T20:31:15;6.50;;;2.10;;
51616;SDS011;37697;52.588;13.394;2023-04-03T20:36:43;8.00;;;1.90;;
51616;SDS011;37697;52.588;13.394;2023-04-03T20:42:09;7.20;;;1.40;;
51616;SDS011;37697;52.588;13.394;2023-04-03T20:47:35;3.40;;;1.50;;
51616;SDS011;37697;52.588;13.394;2023-04-03T20:53:01;4.50;;;1.50;;
51616;SDS011;37697;52.588;13.394;2023-04-03T20:58:27;5.40;;;1.50;;
51616;SDS011;37697;52.588;13.394;2023-04-03T21:03:55;4.20;;;1.10;;
51616;SDS011;37697;52.588;13.394;2023-04-03T21:21:20;4.60;;;1.60;;
51616;SDS011;37697;52.588;13.394;2023-04-03T21:26:47;4.40;;;1.10;;
51616;SDS011;37697;52.588;13.394;2023-04-03T21:32:13;4.60;;;1.20;;
51616;SDS011;37697;52.588;13.394;2023-04-03T21:37:38;5.10;;;1.50;;
51616;SDS011;37697;52.588;13.394;2023-04-03T21:43:04;3.50;;;1.20;;
51616;SDS011;37697;52.588;13.394;2023-04-03T21:48:30;6.50;;;1.50;;
51616;SDS011;37697;52.588;13.394;2023-04-03T21:53:56;5.80;;;1.30;;
51616;SDS011;37697;52.588;13.394;2023-04-03T21:59:28;3.20;;;1.20;;
51616;SDS011;37697;52.588;13.394;2023-04-03T22:04:58;3.90;;;1.10;;
51616;SDS011;37697;52.588;13.394;2023-04-03T22:10:24;5.80;;;1.40;;
51616;SDS011;37697;52.588;13.394;2023-04-03T22:15:50;5.00;;;1.30;;
51616;SDS011;37697;52.588;13.394;2023-04-03T22:21:16;4.30;;;1.20;;
51616;SDS011;37697;52.588;13.394;2023-04-03T22:26:42;6.10;;;1.40;;
51616;SDS011;37697;52.588;13.394;2023-04-03T22:32:07;5.80;;;1.70;;
51616;SDS011;37697;52.588;13.394;2023-04-03T22:37:16;6.90;;;1.90;;
51616;SDS011;37697;52.588;13.394;2023-04-03T22:42:44;5.80;;;1.60;;
51616;SDS011;37697;52.588;13.394;2023-04-03T22:48:10;3.60;;;1.40;;
51616;SDS011;37697;52.588;13.394;2023-04-03T22:53:29;5.10;;;1.70;;
51616;SDS011;37697;52.588;13.394;2023-04-03T22:58:54;5.00;;;1.50;;
51616;SDS011;37697;52.588;13.394;2023-04-03T23:04:20;7.20;;;1.60;;
51616;SDS011;37697;52.588;13.394;2023-04-03T23:09:47;2.40;;;1.30;;
51616;SDS011;37697;52.588;13.394;2023-04-03T23:15:12;5.10;;;1.50;;
51616;SDS011;37697;52.588;13.394;2023-04-03T23:20:38;5.10;;;1.50;;
51616;SDS011;37697;52.588;13.394;2023-04-03T23:25:55;4.00;;;1.20;;
51616;SDS011;37697;52.588;13.394;2023-04-03T23:31:22;3.40;;;1.30;;
51616;SDS011;37697;52.588;13.394;2023-04-03T23:36:48;3.70;;;1.60;;
51616;SDS011;37697;52.588;13.394;2023-04-03T23:42:14;5.10;;;1.60;;
51616;SDS011;37697;52.588;13.394;2023-04-03T23:47:39;5.10;;;1.90;;
51616;SDS011;37697;52.588;13.394;2023-04-03T23:53:05;4.60;;;1.60;;
51616;SDS011;37697;52.588;13.394;2023-04-03T23:58:31;3.50;;;1.50;;
